首页
METAR-TAF:

METAR-TAF

机场 :

阿尔及尔胡阿里·布迈丁机场

阿爾及爾, 阿尔及利亚

纬度: 36-43N, 经度: 003-15E, 海拔: 25米

当前天气观测

该预报发布于21分钟前的23:30 UTC
风速3节,风向南转西南
温度 17°C
湿度 94%
气压 1018 hPa
能見度: 8000
少量云层高于2000英尺

METAR: DAAG 212330Z 20003KT 8000 FEW020 17/16 Q1018

时间: 00:51 (23:51 UTC)

预报

该预报发布于51分钟前的23:00 UTC
预报有效从22日的 00点(UTC)到 22日的 24点(UTC)
风速2节,风向多变
能見度: 8000
少量云层高于2000英尺
几率 40% :
短暂存在
从 22日的 00点(UTC)到 22日的 06点(UTC)
能見度: 3000
多云层高于1500英尺
轻雾
成为
从 22日的 09点(UTC)到 22日的 12点(UTC)
风速10节,风向
短暂存在
从 22日的 10点(UTC)到 22日的 18点(UTC)
少量云层高于2300英尺, 塔状积云.
成为
从 22日的 18点(UTC)到 22日的 21点(UTC)
风速2节,风向多变

TAF: DAAG 212300Z 2200/2224 VRB02KT 8000 FEW020 PROB40 TEMPO 2200/2206 3000 BR BKN015 BECMG 2209/2212 36010KT TEMPO 2210/2218 FEW023TCU BECMG 2218/2221 VRB02KT

超过4000个机场的气象观测和天气预报(METAR&TAF报告)。

可查询的气象台以黄色和红色小点在地图上表示。

将鼠标移到小点上方,可查看气象台名称。

然后点击查看天气观测和预报。

如需切换地图:点击带黑十字的绿色按钮放大地图;点击带横线的绿色按钮缩小地图;或者点击绿色箭头查看邻近地区的地图。


METAR-TAF: